• Join FlightAware (Why Join?)
  • Login
  • US Flag 
Rudolph Flight #1: Arrived! 
09:02AM EST


 

Airport Tracker/Info


-or-


 

Live Flight TrackerFlight Track Log ✈ ASA123 ✈ 24-Jun-2014 ✈ KSEA - PAFA / FAI

Flight Track Log - Related Links

Times and Time Zones

All times are in EDT time to prevent confusion due to time zone crossing. See the ASA123 flight status page for this flight to view local times or setup timezone preferences in your user account.

Time Position Orientation Groundspeed Altitude Reporting Facility
EDT Latitude Longitude Course Direction KTS MPH feet Rate Location/Type
05:03PM 47.4353 -122.3103 176° South 150 173 1,200  Level Seattle Center
05:03PM 47.4225 -122.3089 176° South 161 185 1,800 1,740 Climbing Seattle Center
05:04PM 47.3742 -122.3089 180° South 174 200 3,500 1,920 Climbing Seattle Center
05:05PM 47.3175 -122.3481 205° Southwest 224 258 5,800 2,100 Climbing Seattle Center
05:06PM 47.3108 -122.4481 264° West 249 287 7,900 2,460 Climbing Seattle Center
05:08PM 47.3522 -122.5372 304° West 262 302 10,900 2,520 Climbing Seattle Center
05:09PM 47.4106 -122.6128 319° Northwest 278 320 13,100 1,860 Climbing Seattle Center
05:10PM 47.4819 -122.7056 319° Northwest 341 392 14,800 2,100 Climbing Seattle Center
05:11PM 47.5672 -122.7956 325° Northwest 372 428 17,500 2,340 Climbing Seattle Center
05:12PM 47.6469 -122.8803 324° Northwest 380 437 19,700 2,400 Climbing Seattle Center
05:13PM 47.7372 -122.9747 325° Northwest 390 449 22,400 2,580 Climbing Seattle Center
05:14PM 47.8469 -123.0911 325° Northwest 398 458 25,000 2,220 Climbing Seattle Center
05:15PM 47.9406 -123.1900 325° Northwest 405 466 27,000 2,040 Climbing Seattle Center
05:16PM 48.0344 -123.2908 324° Northwest 409 471 29,200 1,800 Climbing Seattle Center
05:17PM 48.1150 -123.3758 325° Northwest 411 473 30,800 1,620 Climbing Seattle Center
05:17PM 48.1833 -123.4667 318° Northwest 410 472 32,100 1,260 Climbing Vancouver Center
05:18PM 48.2667 -123.5667 321° Northwest 420 483 33,000 780 Climbing Vancouver Center
05:19PM 48.3667 -123.6667 326° Northwest 430 495 33,700 420 Climbing Vancouver Center
05:20PM 48.4667 -123.7667 326° Northwest 430 495 33,900 120 Climbing Vancouver Center
05:21PM 48.5667 -123.8833 322° Northwest 430 495 34,000 300 Climbing Vancouver Center
05:22PM 48.6667 -124.0000 322° Northwest 430 495 34,600 780 Climbing Vancouver Center
05:23PM 48.7500 -124.1000 322° Northwest 430 495 35,600 840 Climbing Vancouver Center
05:24PM 48.8500 -124.2000 327° Northwest 430 495 36,300 780 Climbing Vancouver Center
05:25PM 48.9500 -124.3000 327° Northwest 430 495 37,200 780 Climbing Vancouver Center
05:26PM 49.0500 -124.4167 323° Northwest 430 495 37,900 360 Climbing Vancouver Center
05:27PM 49.1500 -124.5333 323° Northwest 440 506 38,000  Climbing Vancouver Center
05:28PM 49.2500 -124.6500 323° Northwest 440 506 38,000  Level Vancouver Center
05:29PM 49.3500 -124.7667 323° Northwest 440 506 38,000  Level Vancouver Center
05:30PM 49.4500 -124.8833 323° Northwest 440 506 38,000  Level Vancouver Center
05:31PM 49.5500 -124.9833 327° Northwest 440 506 38,000  Level Vancouver Center
05:32PM 49.6500 -125.1167 319° Northwest 440 506 38,000  Level Vancouver Center
05:33PM 49.7500 -125.2167 327° Northwest 440 506 38,000  Level Vancouver Center
05:34PM 49.8500 -125.3333 323° Northwest 440 506 38,000  Level Vancouver Center
05:35PM 49.9333 -125.4667 314° West 440 506 38,000  Level Vancouver Center
05:36PM 50.0500 -125.5667 331° Northwest 440 506 38,000  Level Vancouver Center
05:37PM 50.1500 -125.6667 327° Northwest 450 518 38,000  Level Vancouver Center
05:38PM 50.2333 -125.8167 311° West 450 518 38,000  Level Vancouver Center
05:39PM 50.3333 -125.9167 327° Northwest 450 518 38,000  Level Vancouver Center
05:40PM 50.4167 -126.0333 318° Northwest 450 518 38,000  Level Vancouver Center
05:41PM 50.5333 -126.1667 324° Northwest 450 518 38,000  Level Vancouver Center
05:42PM 50.6333 -126.2667 328° Northwest 450 518 38,000  Level Vancouver Center
05:43PM 50.7333 -126.3833 324° Northwest 450 518 38,000  Level Vancouver Center
05:44PM 50.8333 -126.5167 320° Northwest 450 518 38,000  Level Vancouver Center
05:45PM 50.9167 -126.6333 319° Northwest 450 518 38,000  Level Vancouver Center
05:46PM 51.0167 -126.7500 324° Northwest 450 518 38,000  Level Vancouver Center
05:47PM 51.1167 -126.8833 320° Northwest 450 518 38,000  Level Vancouver Center
05:48PM 51.2167 -127.0000 324° Northwest 450 518 38,000  Level Vancouver Center
05:49PM 51.3167 -127.1333 320° Northwest 450 518 38,000  Level Vancouver Center
05:50PM 51.4167 -127.2500 324° Northwest 450 518 38,000  Level Vancouver Center
05:51PM 51.5000 -127.4000 312° West 450 518 38,000  Level Vancouver Center
05:52PM 51.6000 -127.5167 324° Northwest 450 518 38,000  Level Vancouver Center
05:53PM 51.7167 -127.6500 325° Northwest 450 518 38,000  Level Vancouver Center
05:54PM 51.8167 -127.7667 324° Northwest 460 529 38,000  Level Vancouver Center
05:55PM 51.9000 -127.9167 312° West 460 529 38,000  Level Vancouver Center
05:56PM 52.0000 -128.0333 324° Northwest 460 529 38,000  Level Vancouver Center
05:57PM 52.1000 -128.1667 321° Northwest 460 529 38,000  Level Vancouver Center
05:58PM 52.2000 -128.3000 321° Northwest 450 518 38,000  Level Vancouver Center
05:59PM 52.2833 -128.4167 319° Northwest 450 518 38,000  Level Vancouver Center
06:00PM 52.4000 -128.5667 322° Northwest 450 518 38,000  Level Vancouver Center
06:01PM 52.4833 -128.6833 320° Northwest 450 518 38,000  Level Vancouver Center
06:02PM 52.5833 -128.8333 318° Northwest 450 518 38,000  Level Vancouver Center
06:03PM 52.6833 -128.9500 325° Northwest 460 529 38,000  Level Vancouver Center
06:04PM 52.7833 -129.0667 325° Northwest 460 529 38,000  Level Vancouver Center
06:05PM 52.8833 -129.2167 318° Northwest 460 529 38,000  Level Vancouver Center
06:06PM 52.9833 -129.3500 321° Northwest 460 529 38,000  Level Vancouver Center
06:07PM 53.0833 -129.5000 318° Northwest 460 529 38,000  Level Vancouver Center
06:08PM 53.1667 -129.6500 313° West 460 529 38,000  Level Vancouver Center
06:09PM 53.2667 -129.7667 325° Northwest 460 529 38,000  Level Vancouver Center
06:10PM 53.3667 -129.9333 315° West 460 529 38,000  Level Vancouver Center
06:11PM 53.4667 -130.0500 325° Northwest 460 529 38,000  Level Vancouver Center
06:12PM 53.5667 -130.2167 315° West 460 529 38,000  Level Vancouver Center
06:13PM 53.6500 -130.3333 320° Northwest 460 529 38,000  Level Vancouver Center
06:14PM 53.7667 -130.5000 320° Northwest 460 529 38,000  Level Vancouver Center
06:15PM 53.8500 -130.6167 320° Northwest 460 529 38,000  Level Vancouver Center
06:16PM 53.9500 -130.7833 316° Northwest 460 529 38,000  Level Vancouver Center
06:17PM 54.0333 -130.9167 317° Northwest 460 529 38,000  Level Vancouver Center
06:18PM 54.1333 -131.0667 319° Northwest 450 518 38,000  Level Vancouver Center
06:19PM 54.2333 -131.2000 322° Northwest 450 518 38,000  Level Vancouver Center
06:20PM 54.3333 -131.3667 316° Northwest 450 518 38,000  Level Vancouver Center
06:21PM 54.4333 -131.5000 322° Northwest 450 518 38,000  Level Vancouver Center
06:22PM 54.5000 -131.6167 315° West 450 518 38,000  Level Vancouver Center
06:23PM 54.6000 -131.7833 316° Northwest 450 518 38,000  Level Vancouver Center
06:24PM 54.7000 -131.9167 322° Northwest 450 518 38,000  Level Vancouver Center
06:25PM 54.7833 -132.0833 311° West 450 518 38,000  Level Vancouver Center
06:26PM 54.8833 -132.2167 323° Northwest 460 529 38,000  Level Vancouver Center
06:27PM 54.9667 -132.3833 311° West 450 518 38,000  Level Vancouver Center
06:28PM 55.0667 -132.5167 323° Northwest 460 529 38,000  Level Vancouver Center
06:29PM 55.1667 -132.6833 316° Northwest 460 529 38,000  Level Vancouver Center
06:30PM 55.2500 -132.8167 318° Northwest 450 518 38,000  Level Vancouver Center
06:31PM 55.3500 -132.9667 320° Northwest 450 518 38,000  Level Vancouver Center
06:32PM 55.4333 -133.1333 311° West 460 529 38,000  Level Vancouver Center
06:33PM 55.5333 -133.2667 323° Northwest 460 529 38,000  Level Vancouver Center
06:34PM 55.6167 -133.4333 312° West 460 529 38,000  Level Vancouver Center
06:35PM 55.7000 -133.5833 315° West 460 529 38,000  Level Vancouver Center
06:37PM 55.8500 -133.7500 328° Northwest 450 518 38,000  Level Anchorage Center
06:38PM 55.9333 -133.9000 315° West 460 529 38,000  Level Anchorage Center
06:39PM 56.0333 -134.0667 317° Northwest 460 529 38,000  Level Anchorage Center
06:39PM 56.0667 -134.2167 292° West 460 529 38,000  Level Vancouver Center
06:40PM 56.1667 -134.3500 323° Northwest 460 529 38,000  Level Vancouver Center
06:41PM 56.2500 -134.5333 309° West 460 529 38,000  Level Vancouver Center
06:42PM 56.3333 -134.6833 315° West 460 529 38,000  Level Vancouver Center
06:43PM 56.4333 -134.8500 317° Northwest 460 529 38,000  Level Vancouver Center
06:44PM 56.5333 -135.0000 320° Northwest 460 529 38,000  Level Vancouver Center
06:45PM 56.6167 -135.1833 310° West 460 529 38,000  Level Vancouver Center
06:46PM 56.7000 -135.3333 315° West 460 529 38,000  Level Vancouver Center
06:47PM 56.7833 -135.5167 310° West 460 529 38,000  Level Vancouver Center
06:49PM 56.9000 -135.6500 328° Northwest 450 518 38,000  Level Anchorage Center
06:50PM 56.9833 -135.8500 307° West 460 529 38,000  Level Anchorage Center
06:51PM 57.0667 -136.0667 305° West 470 541 38,000  Level Anchorage Center
06:52PM 57.1500 -136.2500 310° West 470 541 38,000  Level Anchorage Center
06:53PM 57.2333 -136.4333 310° West 460 529 38,000  Level Anchorage Center
06:54PM 57.3000 -136.6167 304° West 460 529 38,000  Level Anchorage Center
06:55PM 57.3833 -136.8167 308° West 470 541 38,000  Level Anchorage Center
06:56PM 57.4667 -137.0000 310° West 470 541 38,000  Level Anchorage Center
06:57PM 57.5333 -137.2000 302° West 470 541 38,000  Level Anchorage Center
06:58PM 57.6167 -137.4000 308° West 470 541 38,000  Level Anchorage Center
06:59PM 57.6833 -137.5833 304° West 470 541 38,000  Level Anchorage Center
07:00PM 57.7667 -137.7833 308° West 470 541 38,000  Level Anchorage Center
07:01PM 57.8500 -137.9833 308° West 470 541 38,000  Level Anchorage Center
07:02PM 57.9167 -138.1833 302° West 460 529 38,000  Level Anchorage Center
07:03PM 58.0000 -138.3667 311° West 460 529 38,000  Level Anchorage Center
07:04PM 58.0667 -138.5667 302° West 460 529 38,000  Level Anchorage Center
07:05PM 58.1500 -138.7667 308° West 460 529 38,000  Level Anchorage Center
07:06PM 58.2167 -138.9500 305° West 460 529 38,000  Level Anchorage Center
07:07PM 58.3000 -139.1500 308° West 470 541 38,000  Level Anchorage Center
07:08PM 58.3500 -139.3167 300° West 450 518 38,000  Level Anchorage Center
07:09PM 58.4333 -139.5500 304° West 460 529 38,000  Level Anchorage Center
07:10PM 58.5000 -139.7167 307° West 450 518 38,000  Level Anchorage Center
07:11PM 58.5833 -139.9167 309° West 450 518 38,000  Level Anchorage Center
07:12PM 58.6667 -140.1333 307° West 450 518 38,000  Level Anchorage Center
07:13PM 58.7333 -140.3333 303° West 460 529 38,000  Level Anchorage Center
07:14PM 58.8000 -140.5167 305° West 460 529 38,000  Level Anchorage Center
07:15PM 58.9000 -140.6833 319° Northwest 460 529 38,000  Level Anchorage Center
07:16PM 58.9833 -140.8667 311° West 460 529 38,000  Level Anchorage Center
07:17PM 59.1000 -141.0500 321° Northwest 460 529 38,000  Level Anchorage Center
07:18PM 59.1833 -141.2000 317° Northwest 470 541 38,000  Level Anchorage Center
07:19PM 59.2833 -141.3667 320° Northwest 460 529 38,000  Level Anchorage Center
07:20PM 59.3667 -141.5500 312° West 460 529 38,000  Level Anchorage Center
07:21PM 59.4667 -141.7167 320° Northwest 460 529 38,000  Level Anchorage Center
07:22PM 59.5500 -141.9000 312° West 460 529 38,000  Level Anchorage Center
07:23PM 59.6500 -142.0667 320° Northwest 460 529 38,000  Level Anchorage Center
07:24PM 59.7500 -142.2500 317° Northwest 460 529 38,000  Level Anchorage Center
07:25PM 59.8333 -142.4333 312° West 460 529 38,000  Level Anchorage Center
07:26PM 59.9333 -142.6000 320° Northwest 470 541 38,000  Level Anchorage Center
07:27PM 60.0333 -142.7833 318° Northwest 460 529 38,000  Level Anchorage Center
07:28PM 60.1167 -142.9667 312° West 460 529 38,000  Level Anchorage Center
07:29PM 60.2167 -143.1500 318° Northwest 460 529 38,000  Level Anchorage Center
07:30PM 60.3000 -143.3333 313° West 460 529 38,000  Level Anchorage Center
07:31PM 60.4000 -143.5167 318° Northwest 460 529 38,000  Level Anchorage Center
07:32PM 60.4833 -143.7000 313° West 460 529 38,000  Level Anchorage Center
07:33PM 60.5833 -143.8833 318° Northwest 460 529 38,000  Level Anchorage Center
07:34PM 60.6667 -144.0667 313° West 460 529 38,000  Level Anchorage Center
07:35PM 60.7667 -144.2667 316° Northwest 470 541 38,000  Level Anchorage Center
07:36PM 60.8500 -144.4500 313° West 470 541 38,000  Level Anchorage Center
07:37PM 60.9500 -144.6333 318° Northwest 470 541 38,000  Level Anchorage Center
07:38PM 61.0333 -144.8333 311° West 470 541 38,000  Level Anchorage Center
07:39PM 61.1333 -145.0333 316° Northwest 460 529 38,000  Level Anchorage Center
07:40PM 61.2167 -145.2167 313° West 470 541 38,000  Level Anchorage Center
07:41PM 61.3000 -145.4167 311° West 460 529 38,000  Level Anchorage Center
07:42PM 61.4000 -145.6167 316° Northwest 460 529 38,000  Level Anchorage Center
07:43PM 61.4833 -145.8167 311° West 460 529 38,000  Level Anchorage Center
07:44PM 61.5833 -146.0167 316° Northwest 460 529 38,000 -180 Level Anchorage Center
07:45PM 61.6667 -146.2167 311° West 460 529 37,700 -540 Descending Anchorage Center
07:46PM 61.7500 -146.4167 311° West 470 541 37,000 -780 Descending Anchorage Center
07:47PM 61.8500 -146.6333 314° West 460 529 36,200 -900 Descending Anchorage Center
07:48PM 61.9333 -146.8167 314° West 470 541 35,300 -600 Descending Anchorage Center
07:49PM 62.0167 -147.0167 312° West 460 529 35,000 -180 Descending Anchorage Center
07:50PM 62.1167 -147.2167 317° Northwest 460 529 35,000  Level Anchorage Center
07:51PM 62.2167 -147.3833 322° Northwest 460 529 35,000  Level Anchorage Center
07:52PM 62.3167 -147.5833 317° Northwest 460 529 35,000  Level Anchorage Center
07:53PM 62.4000 -147.7667 314° West 460 529 35,000  Level Anchorage Center
07:54PM 62.4833 -147.9500 315° West 460 529 35,000  Level Anchorage Center
07:55PM 62.5833 -148.1500 317° Northwest 470 541 35,000  Level Anchorage Center
07:56PM 62.6833 -148.3333 320° Northwest 460 529 35,000  Level Anchorage Center
07:57PM 62.7833 -148.5333 318° Northwest 460 529 35,000  Level Anchorage Center
07:58PM 62.8667 -148.7333 312° West 470 541 35,000 -420 Level Anchorage Center
07:59PM 62.9667 -148.9333 318° Northwest 460 529 34,200 -1,740 Descending Anchorage Center
08:00PM 63.0833 -148.9333 360° North 450 518 31,500 -2,640 Descending Anchorage Center
08:01PM 63.2167 -148.8667 13° North 460 529 29,000 -2,460 Descending Anchorage Center
08:02PM 63.3333 -148.8000 14° North 460 529 26,600 -2,280 Descending Anchorage Center
08:03PM 63.4500 -148.7333 14° North 440 506 24,500 -2,100 Descending Anchorage Center
08:04PM 63.5667 -148.6833 11° North 420 483 22,500 -1,980 Descending Anchorage Center
08:06PM 63.7833 -148.5667 13° North 380 437 18,600 -1,980 Descending Anchorage Center
08:07PM 63.8833 -148.5167 12° North 360 414 16,600 -2,100 Descending Anchorage Center
08:08PM 63.9833 -148.4500 16° North 350 403 14,500 -2,100 Descending Anchorage Center
08:10PM 64.1633 -148.3685 12° North  Level FlightAware Approximate
08:17PM 64.8000 -147.8500 90° East  Level FlightAware Approximate
08:18PM 64.8151 -147.8564 90° East  Level Estimated
08:19PM 64.8151 -147.8564 90° East  Level Estimated
08:20PM 64.8151 -147.8564 90° East  Level Estimated
08:21PM 64.8151 -147.8564 90° East  Level Estimated
08:22PM 64.8151 -147.8564 90° East  Level Estimated
08:23PM 64.8151 -147.8564 90° East  Level Estimated
08:24PM 64.8151 -147.8564 90° East  Level Estimated
08:25PM 64.8151 -147.8564 90° East  Level Estimated
08:26PM 64.8151 -147.8564 90° East  Level Estimated
08:27PM 64.8151 -147.8564 90° East  Level Estimated
08:28PM 64.8151 -147.8564 90° East  Level Estimated
08:29PM 64.8151 -147.8564 90° East  Level Estimated
08:30PM 64.8151 -147.8564 90° East  Level Estimated
08:31PM 64.8151 -147.8564 90° East  Level Estimated
08:32PM 64.8151 -147.8564 90° East  Level Estimated
08:33PM 64.8151 -147.8564 90° East  Level Estimated
08:34PM 64.8151 -147.8564 90° East  Level Estimated